テヘラン の空港の天気 - METARとTAF

メヘラーバード国際空港(テヘラン) ( OIII / THR ) - イラン テヘラン
飛行場実況気象(Metar)
観測時間08/25 23:30 IRDT (08/25 19:00 UTC)
風向・風速西北西 3m/s
視程10km以上
天気現象
少しの雲 雲底高度 3050m
気温29℃
湿度19%
気圧1015hPa
METAROIII 251900Z 30006KT 9999 FEW100 29/03 Q1015 A2998 NOSIG
過去の天気等 Google飛行場航空写真 Wunderground天気予報

過去48時間のMETAR

飛行場予報(TAF)
発表時間: 8/25 15:30 IRDT (8/25 11:00 UTC)
予報対象時間: 25日16時 IRDT ~ 26日22時 IRDT
風向・風速西 4m/s
視程10km以上
少しの雲 雲底高度 1220m
25日16時 IRDT ~ 25日20時 IRDT に一時的に
風向・風速南南西 8m/s
少しの積乱雲 雲底高度 1070m
全天の4割程度の雲 雲底高度 3050m
TAF OIII 251100Z 2512/2618 27008KT 9999 FEW040
TEMPO 2512/2516 21016KT FEW035CB SCT100